Time;durP1;ratioP1;P1;durP2;ratioP2;P2;SDS_P1;SDS_P2;PMS_P1;PMS_P2;Temp;Humidity;BMP_temperature;BMP_pressure;BME280_temperature;BME280_humidity;BME280_pressure;Samples;Min_cycle;Max_cycle;Signal;HPM_P1;HPM_P2
2021/12/10 00:01:01;;;;;;;18.48;3.88;;;10.50;74.50;;;;;;5119151;28;20016;-59
2021/12/10 00:03:38;;;;;;;15.65;3.40;;;10.50;74.40;;;;;;5119310;28;20027;-59
2021/12/10 00:06:12;;;;;;;20.52;3.97;;;10.50;74.40;;;;;;5119336;28;20012;-59
2021/12/10 00:08:41;;;;;;;22.40;3.03;;;10.50;74.30;;;;;;5119154;28;20443;-60
2021/12/10 00:11:11;;;;;;;15.55;3.50;;;10.50;74.30;;;;;;5118965;28;20119;-59
2021/12/10 00:13:37;;;;;;;15.07;3.17;;;10.40;74.10;;;;;;5119368;28;20020;-59
2021/12/10 00:16:05;;;;;;;17.85;3.40;;;10.40;74.20;;;;;;5118938;28;20115;-59
2021/12/10 00:18:35;;;;;;;18.85;2.88;;;10.40;74.20;;;;;;5118868;28;20047;-61
2021/12/10 00:21:03;;;;;;;13.77;3.03;;;10.40;74.20;;;;;;5118854;28;20020;-60
2021/12/10 00:23:31;;;;;;;15.02;3.38;;;10.30;74.30;;;;;;5119037;28;20076;-59
2021/12/10 00:25:57;;;;;;;15.85;3.00;;;10.30;74.30;;;;;;5118979;28;20463;-59
2021/12/10 00:28:30;;;;;;;17.40;2.53;;;10.30;74.20;;;;;;5118841;28;20038;-59
2021/12/10 00:31:15;;;;;;;12.23;2.10;;;10.30;74.20;;;;;;5118610;28;20015;-59
2021/12/10 00:33:54;;;;;;;15.55;2.85;;;10.20;74.10;;;;;;5118617;28;20497;-60
2021/12/10 00:36:20;;;;;;;14.27;2.67;;;10.20;74.10;;;;;;5118525;28;20063;-59
2021/12/10 00:38:47;;;;;;;9.38;2.22;;;10.20;74.00;;;;;;5118191;28;20054;-60
2021/12/10 00:41:13;;;;;;;16.00;2.70;;;10.10;74.00;;;;;;5118652;28;20031;-60
2021/12/10 00:43:40;;;;;;;13.93;2.42;;;10.10;73.90;;;;;;5118657;28;20027;-60
2021/12/10 00:46:06;;;;;;;13.70;2.53;;;10.00;73.80;;;;;;5118452;28;20023;-59
2021/12/10 00:48:33;;;;;;;11.90;2.60;;;10.00;73.80;;;;;;5118581;28;20102;-59
2021/12/10 00:51:00;;;;;;;16.08;3.42;;;10.00;73.90;;;;;;5118452;28;20026;-60
2021/12/10 00:53:26;;;;;;;15.98;2.55;;;9.90;73.90;;;;;;5118484;28;20016;-59
2021/12/10 00:55:53;;;;;;;12.70;2.03;;;9.90;73.80;;;;;;5118310;28;20024;-59
2021/12/10 00:58:20;;;;;;;14.07;2.33;;;9.90;73.90;;;;;;5118427;28;20024;-60
2021/12/10 01:00:56;;;;;;;21.08;2.58;;;9.80;73.90;;;;;;5118519;28;20437;-60
2021/12/10 01:03:26;;;;;;;11.55;2.25;;;9.80;73.90;;;;;;5118367;28;20062;-60
2021/12/10 01:05:56;;;;;;;14.68;3.05;;;9.80;73.90;;;;;;5118269;28;20447;-60
2021/12/10 01:08:23;;;;;;;15.75;3.55;;;9.70;73.90;;;;;;5118302;28;20015;-60
2021/12/10 01:10:54;;;;;;;14.20;2.50;;;9.70;73.80;;;;;;5118456;28;20024;-59
2021/12/10 01:13:27;;;;;;;15.65;3.10;;;9.70;73.80;;;;;;5118059;28;20019;-61
2021/12/10 01:24:34;;;;;;;17.23;3.72;;;9.60;74.00;;;;;;5117944;28;20078;-60
2021/12/10 01:27:09;;;;;;;16.92;2.85;;;9.60;74.30;;;;;;5117983;28;20024;-61
2021/12/10 01:29:40;;;;;;;17.48;2.47;;;9.70;74.10;;;;;;5117897;28;20024;-59
2021/12/10 01:32:09;;;;;;;9.93;2.35;;;9.70;74.30;;;;;;5117558;28;20024;-60
2021/12/10 01:34:35;;;;;;;14.63;3.95;;;9.70;74.20;;;;;;5117804;28;20023;-59
2021/12/10 01:37:02;;;;;;;13.23;2.40;;;9.70;74.10;;;;;;5117982;28;20451;-60
2021/12/10 01:39:34;;;;;;;13.10;2.55;;;9.70;74.00;;;;;;5117773;28;20497;-60
2021/12/10 01:42:14;;;;;;;11.45;1.98;;;9.70;74.40;;;;;;5117834;28;20019;-61
2021/12/10 01:44:44;;;;;;;13.85;3.13;;;9.70;74.00;;;;;;5117494;28;20032;-61
2021/12/10 01:47:12;;;;;;;9.45;2.13;;;9.60;73.80;;;;;;5117720;28;20024;-60
2021/12/10 01:49:40;;;;;;;14.07;2.50;;;9.60;73.60;;;;;;5121023;28;20042;-60
2021/12/10 01:52:06;;;;;;;11.98;2.20;;;9.60;73.60;;;;;;5121948;28;20059;-60
2021/12/10 01:54:38;;;;;;;12.73;2.25;;;9.60;73.70;;;;;;5121926;28;20019;-60
2021/12/10 01:57:06;;;;;;;14.30;2.67;;;9.50;73.40;;;;;;5121422;28;20026;-61
2021/12/10 01:59:34;;;;;;;14.27;2.97;;;9.50;73.40;;;;;;5121805;27;20024;-61
2021/12/10 02:02:06;;;;;;;10.50;2.15;;;9.50;73.60;;;;;;5121779;27;20047;-60
2021/12/10 02:04:34;;;;;;;16.73;3.30;;;9.50;74.10;;;;;;5121511;28;20075;-60
2021/12/10 02:07:00;;;;;;;15.95;3.47;;;9.40;73.60;;;;;;5121458;28;20023;-59
2021/12/10 02:09:27;;;;;;;15.32;3.20;;;9.40;73.60;;;;;;5121618;27;20074;-59
2021/12/10 02:11:53;;;;;;;13.52;3.10;;;9.40;73.70;;;;;;5121284;28;20043;-60
2021/12/10 02:14:20;;;;;;;11.15;2.47;;;9.40;73.70;;;;;;5121304;28;20020;-60
2021/12/10 02:16:48;;;;;;;11.10;2.38;;;9.40;73.60;;;;;;5121372;27;20462;-60
2021/12/10 02:19:14;;;;;;;10.93;2.45;;;9.40;73.40;;;;;;5121252;28;20019;-60
2021/12/10 02:21:41;;;;;;;12.13;2.40;;;9.40;73.40;;;;;;5121433;28;20154;-59
2021/12/10 02:24:10;;;;;;;10.30;2.38;;;9.30;73.60;;;;;;5121061;28;20028;-60
2021/12/10 02:26:43;;;;;;;15.20;2.67;;;9.30;73.50;;;;;;5121290;28;20055;-60
2021/12/10 02:29:11;;;;;;;12.80;2.50;;;9.30;73.70;;;;;;5121171;28;20027;-60
2021/12/10 02:31:39;;;;;;;14.43;2.60;;;9.30;73.70;;;;;;5120923;28;20027;-59
2021/12/10 02:34:05;;;;;;;9.18;2.22;;;9.30;73.70;;;;;;5120960;28;20039;-60
2021/12/10 02:36:32;;;;;;;15.73;2.60;;;9.30;73.70;;;;;;5121435;28;20419;-60
2021/12/10 02:38:58;;;;;;;12.07;2.92;;;9.30;73.60;;;;;;5121262;28;20030;-60
2021/12/10 02:41:29;;;;;;;14.85;3.00;;;9.30;73.60;;;;;;5120655;28;20019;-59
2021/12/10 02:43:56;;;;;;;19.35;3.58;;;9.20;73.50;;;;;;5120990;28;20030;-60
2021/12/10 02:46:22;;;;;;;15.23;3.13;;;9.20;73.60;;;;;;5120872;28;20016;-60
2021/12/10 02:48:48;;;;;;;14.27;3.47;;;9.20;73.50;;;;;;5120891;28;20038;-60
2021/12/10 02:51:14;;;;;;;14.68;2.47;;;9.20;73.50;;;;;;5120952;28;20022;-59
2021/12/10 02:53:44;;;;;;;12.43;2.03;;;9.10;73.40;;;;;;5121037;28;20027;-59
2021/12/10 02:56:14;;;;;;;13.25;2.58;;;9.10;73.30;;;;;;5120512;28;20043;-59
2021/12/10 02:58:41;;;;;;;11.63;2.30;;;9.10;73.30;;;;;;5120927;28;20073;-60
2021/12/10 03:01:23;;;;;;;14.25;3.00;;;9.10;73.50;;;;;;5120055;28;20519;-59
2021/12/10 03:03:49;;;;;;;12.20;2.47;;;9.00;73.30;;;;;;5120234;28;20020;-61
2021/12/10 03:06:16;;;;;;;22.83;3.33;;;9.10;73.50;;;;;;5120323;28;20081;-59
2021/12/10 03:08:46;;;;;;;16.83;3.03;;;9.00;73.50;;;;;;5120474;28;20054;-60
2021/12/10 03:11:15;;;;;;;19.75;3.42;;;9.00;73.40;;;;;;5120102;28;20096;-59
2021/12/10 03:13:41;;;;;;;17.48;3.83;;;9.00;73.30;;;;;;5120440;28;20106;-59
2021/12/10 03:16:07;;;;;;;22.02;3.28;;;9.00;73.50;;;;;;5120142;28;20059;-60
2021/12/10 03:18:34;;;;;;;17.13;3.25;;;9.00;73.50;;;;;;5120129;28;20430;-59
2021/12/10 03:21:02;;;;;;;18.08;3.70;;;9.00;73.60;;;;;;5120101;28;20019;-60
2021/12/10 03:23:28;;;;;;;16.75;3.42;;;9.10;73.50;;;;;;5120228;27;20069;-60
2021/12/10 03:25:54;;;;;;;13.32;2.55;;;9.10;73.40;;;;;;5119927;28;20020;-60
2021/12/10 03:28:20;;;;;;;15.50;3.03;;;9.10;73.50;;;;;;5120149;28;20020;-59
2021/12/10 03:30:49;;;;;;;15.27;2.90;;;9.10;73.40;;;;;;5120037;28;20032;-60
2021/12/10 03:33:16;;;;;;;18.60;3.15;;;9.10;73.60;;;;;;5119975;28;20024;-60
2021/12/10 03:35:46;;;;;;;18.05;3.15;;;9.10;73.30;;;;;;5119946;28;20106;-59
2021/12/10 03:38:17;;;;;;;14.32;3.08;;;9.10;73.20;;;;;;5119814;28;20031;-60
2021/12/10 03:40:42;;;;;;;14.05;3.28;;;9.10;73.30;;;;;;5119613;28;20351;-60
2021/12/10 03:43:09;;;;;;;13.65;3.10;;;9.10;73.10;;;;;;5120097;27;20043;-59
2021/12/10 03:45:39;;;;;;;14.93;2.90;;;9.20;73.30;;;;;;5119719;28;20027;-60
2021/12/10 03:48:12;;;;;;;12.55;2.22;;;9.10;73.20;;;;;;5119697;28;20370;-59
2021/12/10 03:50:39;;;;;;;15.07;3.35;;;9.10;73.10;;;;;;5119879;28;20035;-61
2021/12/10 03:53:05;;;;;;;17.45;3.63;;;9.10;73.00;;;;;;5119350;28;20023;-59
2021/12/10 03:55:33;;;;;;;12.60;2.70;;;9.10;73.20;;;;;;5119307;28;20386;-60
2021/12/10 03:57:59;;;;;;;13.48;2.33;;;9.10;73.10;;;;;;5119583;27;20028;-60
2021/12/10 04:00:29;;;;;;;16.88;3.35;;;9.10;73.10;;;;;;5119198;28;20384;-60
2021/12/10 04:02:56;;;;;;;12.82;2.60;;;9.10;73.00;;;;;;5119686;28;20106;-60
2021/12/10 04:05:23;;;;;;;15.75;3.17;;;9.00;73.10;;;;;;5119371;28;20027;-60
2021/12/10 04:07:49;;;;;;;19.58;3.40;;;9.10;73.10;;;;;;5119260;28;20023;-60
2021/12/10 04:10:17;;;;;;;19.35;3.38;;;9.00;73.10;;;;;;5119098;28;20019;-60
2021/12/10 04:12:42;;;;;;;15.73;2.95;;;9.00;73.20;;;;;;5117702;28;20047;-60
2021/12/10 04:15:10;;;;;;;13.57;2.40;;;9.00;73.10;;;;;;5118965;28;20016;-59
2021/12/10 04:17:38;;;;;;;15.95;3.38;;;9.00;73.30;;;;;;5119143;28;20035;-59
2021/12/10 04:20:06;;;;;;;16.10;3.30;;;9.00;73.20;;;;;;5118688;28;20027;-59
2021/12/10 04:22:33;;;;;;;17.38;2.97;;;9.00;73.20;;;;;;5119085;28;20062;-59
2021/12/10 04:25:05;;;;;;;15.63;2.95;;;9.00;73.20;;;;;;5118760;28;20099;-59
2021/12/10 04:27:32;;;;;;;14.35;2.53;;;8.90;73.10;;;;;;5118720;28;20031;-60
2021/12/10 04:29:58;;;;;;;14.68;3.17;;;8.90;73.00;;;;;;5118753;28;20024;-59
2021/12/10 04:32:26;;;;;;;11.93;2.35;;;8.90;73.10;;;;;;5118713;28;20110;-59
2021/12/10 04:34:52;;;;;;;14.15;2.42;;;8.90;73.00;;;;;;5118592;28;20016;-60
2021/12/10 04:37:19;;;;;;;7.93;1.80;;;8.90;73.00;;;;;;5118936;28;20493;-60
2021/12/10 04:39:48;;;;;;;8.23;1.27;;;8.90;72.90;;;;;;5118725;28;20563;-60
2021/12/10 04:42:20;;;;;;;7.30;1.30;;;8.90;72.80;;;;;;5118357;28;20370;-60
2021/12/10 04:44:46;;;;;;;8.77;1.60;;;8.90;72.90;;;;;;5118629;28;20020;-59
2021/12/10 04:47:12;;;;;;;7.18;1.65;;;8.90;73.00;;;;;;5118449;28;20026;-60
2021/12/10 04:49:39;;;;;;;11.25;2.05;;;8.90;72.90;;;;;;5118442;28;20084;-60
2021/12/10 04:52:06;;;;;;;6.80;1.58;;;8.90;72.80;;;;;;5118196;28;20132;-60
2021/12/10 04:54:34;;;;;;;9.27;1.75;;;8.90;72.80;;;;;;5118371;28;20019;-60
2021/12/10 04:57:01;;;;;;;8.40;1.52;;;8.90;72.90;;;;;;5118244;28;20065;-59
2021/12/10 04:59:29;;;;;;;11.98;1.65;;;8.80;72.80;;;;;;5118197;28;20016;-60
2021/12/10 05:01:57;;;;;;;9.07;1.90;;;8.80;72.70;;;;;;5118087;28;20020;-60
2021/12/10 05:04:25;;;;;;;6.00;1.40;;;8.80;72.70;;;;;;5118272;28;20036;-59
2021/12/10 05:06:51;;;;;;;9.27;2.03;;;8.80;72.80;;;;;;5118151;28;20402;-60
2021/12/10 05:09:18;;;;;;;8.48;1.50;;;8.70;72.80;;;;;;5116613;28;20028;-59
2021/12/10 05:11:45;;;;;;;9.82;1.77;;;8.80;72.70;;;;;;5117896;28;20047;-60
2021/12/10 05:14:11;;;;;;;7.05;1.58;;;8.70;72.80;;;;;;5118051;28;20024;-59
2021/12/10 05:16:42;;;;;;;9.88;1.55;;;8.70;72.80;;;;;;5118164;28;20045;-60
2021/12/10 05:19:09;;;;;;;7.72;1.60;;;8.70;72.60;;;;;;5118421;28;20020;-60
2021/12/10 05:21:36;;;;;;;13.07;1.98;;;8.70;72.60;;;;;;5117758;28;20073;-59
2021/12/10 05:24:07;;;;;;;8.63;1.73;;;8.70;72.70;;;;;;5117853;28;20470;-59
2021/12/10 05:26:33;;;;;;;11.95;1.80;;;8.70;72.70;;;;;;5118145;28;20517;-60
2021/12/10 05:28:59;;;;;;;11.82;2.63;;;8.70;72.70;;;;;;5117870;28;20551;-59
2021/12/10 05:31:25;;;;;;;8.75;1.55;;;8.70;72.70;;;;;;5116356;28;20042;-60
2021/12/10 05:33:51;;;;;;;13.68;2.45;;;8.60;72.80;;;;;;5117810;28;20024;-60
2021/12/10 05:36:17;;;;;;;11.65;2.05;;;8.60;72.60;;;;;;5117813;28;20091;-60
2021/12/10 05:38:44;;;;;;;12.73;2.00;;;8.60;72.70;;;;;;5117820;28;20398;-59
2021/12/10 05:41:11;;;;;;;11.82;2.00;;;8.60;72.70;;;;;;5117503;28;20092;-59
2021/12/10 05:43:39;;;;;;;11.60;2.10;;;8.60;72.80;;;;;;5117912;28;20493;-60
2021/12/10 05:46:05;;;;;;;12.02;1.98;;;8.60;72.80;;;;;;5118443;28;20021;-59
2021/12/10 05:48:31;;;;;;;13.10;1.83;;;8.60;72.80;;;;;;5117937;28;20026;-59
2021/12/10 05:50:57;;;;;;;9.57;2.03;;;8.70;73.00;;;;;;5118122;28;20046;-60
2021/12/10 05:53:23;;;;;;;13.32;2.22;;;8.70;72.90;;;;;;5117659;28;20062;-60
2021/12/10 05:55:49;;;;;;;9.40;2.10;;;8.70;72.90;;;;;;5117369;28;20024;-59
2021/12/10 05:58:16;;;;;;;13.88;2.08;;;8.70;72.80;;;;;;5117608;28;20069;-59
2021/12/10 06:00:47;;;;;;;9.73;2.00;;;8.70;72.70;;;;;;5117433;28;20508;-59
2021/12/10 06:03:12;;;;;;;14.57;2.60;;;8.70;72.70;;;;;;5117578;28;20023;-59
2021/12/10 06:05:40;;;;;;;9.75;2.08;;;8.60;72.70;;;;;;5117574;28;20068;-60
2021/12/10 06:08:07;;;;;;;11.23;2.20;;;8.70;72.60;;;;;;5117525;28;20027;-60
2021/12/10 06:10:34;;;;;;;14.07;2.30;;;8.60;72.50;;;;;;5117532;28;20030;-60
2021/12/10 06:13:00;;;;;;;10.15;1.98;;;8.70;72.50;;;;;;5117057;28;20070;-59
2021/12/10 06:15:28;;;;;;;11.20;2.28;;;8.60;72.40;;;;;;5117478;28;20069;-59
2021/12/10 06:17:54;;;;;;;9.57;2.03;;;8.60;72.20;;;;;;5117457;28;20404;-60
2021/12/10 06:20:24;;;;;;;9.18;2.08;;;8.60;72.40;;;;;;5117193;28;20024;-59
2021/12/10 06:22:50;;;;;;;14.77;2.55;;;8.60;72.40;;;;;;5117592;28;20034;-60
2021/12/10 06:25:16;;;;;;;11.10;2.40;;;8.60;72.40;;;;;;5116725;28;20051;-59
2021/12/10 06:27:44;;;;;;;11.00;1.95;;;8.60;72.40;;;;;;5117198;28;20027;-59
2021/12/10 06:30:16;;;;;;;9.07;2.17;;;8.60;72.60;;;;;;5117703;28;20142;-60
2021/12/10 06:32:44;;;;;;;8.48;2.10;;;8.60;72.30;;;;;;5117381;28;20051;-59
2021/12/10 06:35:12;;;;;;;12.48;1.80;;;8.60;72.00;;;;;;5118695;28;20022;-60
2021/12/10 06:37:39;;;;;;;6.50;1.83;;;8.60;72.50;;;;;;5121025;28;20398;-60
2021/12/10 06:40:09;;;;;;;8.88;1.40;;;8.60;71.90;;;;;;5120856;28;20016;-59
2021/12/10 06:42:36;;;;;;;8.05;1.42;;;8.60;71.50;;;;;;5120777;28;20023;-59
2021/12/10 06:45:06;;;;;;;6.68;1.60;;;8.60;71.50;;;;;;5120973;28;20051;-60
2021/12/10 06:47:32;;;;;;;7.95;1.20;;;8.60;71.70;;;;;;5120508;28;20027;-59
2021/12/10 06:49:58;;;;;;;8.45;1.27;;;8.60;71.60;;;;;;5121093;28;20027;-60
2021/12/10 06:52:24;;;;;;;5.40;1.70;;;8.60;71.60;;;;;;5121121;28;20051;-59
2021/12/10 06:54:50;;;;;;;6.57;1.20;;;8.50;71.60;;;;;;5120879;28;20466;-59
2021/12/10 06:57:16;;;;;;;8.60;1.30;;;8.50;71.50;;;;;;5120540;28;20031;-59
2021/12/10 06:59:42;;;;;;;8.05;1.60;;;8.50;71.90;;;;;;5120685;28;20026;-60
2021/12/10 07:02:08;;;;;;;8.90;1.45;;;8.50;71.30;;;;;;5120770;28;20497;-60
2021/12/10 07:04:35;;;;;;;8.13;1.52;;;8.50;71.60;;;;;;5120551;27;20448;-60
2021/12/10 07:07:02;;;;;;;9.63;1.48;;;8.50;71.60;;;;;;5120467;28;20052;-60
2021/12/10 07:09:28;;;;;;;9.05;1.67;;;8.50;71.80;;;;;;5120545;28;20032;-60
2021/12/10 07:11:55;;;;;;;12.38;1.80;;;8.50;71.90;;;;;;5120191;28;20042;-59
2021/12/10 07:14:21;;;;;;;5.28;1.23;;;8.60;72.10;;;;;;5120127;28;20016;-59
2021/12/10 07:16:49;;;;;;;9.18;2.15;;;8.60;72.00;;;;;;5120099;28;20044;-61
2021/12/10 07:19:16;;;;;;;9.02;2.03;;;8.60;72.10;;;;;;5120201;28;20036;-61
2021/12/10 07:21:42;;;;;;;12.80;2.95;;;8.60;72.20;;;;;;5120045;28;20027;-60
2021/12/10 07:24:13;;;;;;;17.20;5.32;;;8.60;72.20;;;;;;5120092;28;20027;-60
2021/12/10 07:26:40;;;;;;;11.32;3.63;;;8.60;72.20;;;;;;5119840;28;20054;-61
2021/12/10 07:29:07;;;;;;;19.33;7.70;;;8.60;72.20;;;;;;5119819;28;20046;-60
2021/12/10 07:31:34;;;;;;;10.52;3.97;;;8.60;72.20;;;;;;5119700;27;20088;-60
2021/12/10 07:34:01;;;;;;;12.65;5.80;;;8.60;72.20;;;;;;5119992;28;20078;-61
2021/12/10 07:36:27;;;;;;;9.93;3.75;;;8.60;72.30;;;;;;5120123;28;20412;-60
2021/12/10 07:38:56;;;;;;;9.48;4.20;;;8.60;72.30;;;;;;5119856;28;20107;-60
2021/12/10 07:41:22;;;;;;;11.77;4.43;;;8.60;72.80;;;;;;5118911;28;20024;-60
2021/12/10 07:43:48;;;;;;;13.38;5.95;;;8.60;72.40;;;;;;5119429;27;20031;-60
2021/12/10 07:46:14;;;;;;;11.70;4.43;;;8.60;72.30;;;;;;5119692;28;20028;-60
2021/12/10 07:48:42;;;;;;;11.65;5.13;;;8.60;72.40;;;;;;5119772;28;20442;-60
2021/12/10 07:51:16;;;;;;;11.95;5.90;;;8.60;72.40;;;;;;5119697;28;20047;-60
2021/12/10 07:53:43;;;;;;;19.03;8.13;;;8.60;72.40;;;;;;5119792;28;20024;-60
2021/12/10 07:56:12;;;;;;;15.38;7.13;;;8.50;72.20;;;;;;5119676;28;20325;-60
2021/12/10 07:58:40;;;;;;;18.20;7.05;;;8.50;72.20;;;;;;5119809;28;20023;-60
2021/12/10 08:01:10;;;;;;;17.95;9.75;;;8.50;72.40;;;;;;5119368;28;20428;-60
2021/12/10 08:03:36;;;;;;;20.23;8.77;;;8.50;72.40;;;;;;5119700;28;20027;-60
2021/12/10 08:06:03;;;;;;;12.45;4.80;;;8.50;72.40;;;;;;5119630;28;20047;-60
2021/12/10 08:08:29;;;;;;;12.70;3.97;;;8.50;72.40;;;;;;5119867;28;20023;-59
2021/12/10 08:10:55;;;;;;;11.07;5.53;;;8.50;72.40;;;;;;5119235;28;20019;-59
2021/12/10 08:13:22;;;;;;;15.10;5.13;;;8.50;72.40;;;;;;5118989;28;20498;-59
2021/12/10 08:15:49;;;;;;;14.82;3.70;;;8.50;72.40;;;;;;5119435;28;20027;-60
2021/12/10 08:18:15;;;;;;;9.40;3.10;;;8.50;72.30;;;;;;5119459;28;20023;-59
2021/12/10 08:20:41;;;;;;;17.38;6.45;;;8.50;72.40;;;;;;5119140;28;20064;-59
2021/12/10 08:23:07;;;;;;;13.35;4.25;;;8.50;72.40;;;;;;5119062;28;20098;-60
2021/12/10 08:25:33;;;;;;;15.25;3.47;;;8.50;72.30;;;;;;5119242;28;20043;-60
2021/12/10 08:28:01;;;;;;;12.43;3.97;;;8.50;72.30;;;;;;5119056;28;20467;-60
2021/12/10 08:30:29;;;;;;;14.90;4.22;;;8.50;72.40;;;;;;5119147;28;20024;-59
2021/12/10 08:32:57;;;;;;;11.00;3.03;;;8.50;72.30;;;;;;5118863;28;20067;-60
2021/12/10 08:35:29;;;;;;;11.70;3.53;;;8.50;72.20;;;;;;5118916;28;20166;-60
2021/12/10 08:37:57;;;;;;;12.73;3.17;;;8.50;72.20;;;;;;5118607;28;20069;-60
2021/12/10 08:40:29;;;;;;;13.40;3.42;;;8.50;72.20;;;;;;5118833;28;20024;-60
2021/12/10 08:42:55;;;;;;;14.13;4.07;;;8.50;72.20;;;;;;5118811;28;20038;-61
2021/12/10 08:45:22;;;;;;;7.60;3.15;;;8.50;72.60;;;;;;5118945;28;20024;-60
2021/12/10 08:47:49;;;;;;;9.73;3.58;;;8.50;72.10;;;;;;5119176;28;20469;-59
2021/12/10 08:50:18;;;;;;;18.98;5.68;;;8.60;72.00;;;;;;5118833;28;20026;-59
2021/12/10 08:52:44;;;;;;;48.13;19.95;;;8.60;72.00;;;;;;5118443;28;20063;-60
2021/12/10 08:55:11;;;;;;;46.88;18.85;;;8.60;72.20;;;;;;5118559;28;20038;-60
2021/12/10 08:57:38;;;;;;;34.65;13.32;;;8.60;72.10;;;;;;5117875;28;20103;-60
2021/12/10 09:00:07;;;;;;;28.30;10.27;;;8.60;72.10;;;;;;5119226;28;20020;-59
2021/12/10 09:02:34;;;;;;;47.42;19.80;;;8.60;72.20;;;;;;5118691;28;20033;-60
2021/12/10 09:05:00;;;;;;;38.70;16.20;;;8.60;72.10;;;;;;5118363;28;20024;-60
2021/12/10 09:07:26;;;;;;;23.60;10.95;;;8.70;72.10;;;;;;5118460;28;20099;-60
2021/12/10 09:09:52;;;;;;;17.88;8.40;;;8.60;71.90;;;;;;5118262;28;20058;-59
2021/12/10 09:12:24;;;;;;;21.90;9.02;;;8.70;72.10;;;;;;5118202;28;20448;-59
2021/12/10 09:14:53;;;;;;;18.88;13.60;;;8.70;72.10;;;;;;5118265;28;20111;-59
2021/12/10 09:17:25;;;;;;;27.45;24.60;;;8.70;72.10;;;;;;5118319;28;20474;-59
2021/12/10 09:19:52;;;;;;;24.25;16.48;;;8.80;72.20;;;;;;5118322;28;20023;-60
2021/12/10 09:22:19;;;;;;;29.00;15.98;;;8.80;72.20;;;;;;5118174;28;20027;-60
2021/12/10 09:24:46;;;;;;;17.58;7.50;;;8.80;72.30;;;;;;5118393;28;20019;-61
2021/12/10 09:27:13;;;;;;;17.77;8.38;;;8.90;72.20;;;;;;5118188;28;20032;-60
2021/12/10 09:29:43;;;;;;;19.25;6.05;;;8.90;72.10;;;;;;5118460;28;20024;-60
2021/12/10 09:32:12;;;;;;;22.05;10.90;;;8.90;72.20;;;;;;5117368;28;20494;-60
2021/12/10 09:34:38;;;;;;;21.25;10.65;;;8.90;72.10;;;;;;5117729;28;20016;-60
2021/12/10 09:37:05;;;;;;;15.65;6.32;;;9.00;72.10;;;;;;5118231;28;20024;-60
2021/12/10 09:39:31;;;;;;;17.42;5.40;;;9.00;72.00;;;;;;5118084;28;20065;-60
2021/12/10 09:41:58;;;;;;;13.77;4.40;;;9.00;71.70;;;;;;5118252;28;20056;-60
2021/12/10 09:44:24;;;;;;;16.50;9.20;;;9.10;71.90;;;;;;5117985;28;20039;-60
2021/12/10 09:46:54;;;;;;;19.58;6.38;;;9.10;71.40;;;;;;5118030;28;20030;-59
2021/12/10 09:49:24;;;;;;;18.77;5.70;;;9.10;71.30;;;;;;5118229;28;20678;-59
2021/12/10 09:51:53;;;;;;;21.58;8.85;;;9.20;71.60;;;;;;5117804;28;20064;-59
2021/12/10 09:54:21;;;;;;;16.58;8.20;;;9.20;71.20;;;;;;5117921;28;20520;-60
2021/12/10 09:56:51;;;;;;;21.48;12.45;;;9.20;71.30;;;;;;5118105;28;20027;-59
2021/12/10 09:59:18;;;;;;;19.30;11.00;;;9.20;71.30;;;;;;5117883;28;20449;-60
2021/12/10 10:01:47;;;;;;;20.70;10.25;;;9.30;71.40;;;;;;5118085;28;20523;-59
2021/12/10 10:04:17;;;;;;;20.42;7.47;;;9.30;71.50;;;;;;5117907;28;20031;-60
2021/12/10 10:06:59;;;;;;;19.20;6.93;;;9.40;71.10;;;;;;5118231;28;20034;-60
2021/12/10 10:09:26;;;;;;;23.05;10.23;;;9.40;71.40;;;;;;5118256;28;20023;-61
2021/12/10 10:12:05;;;;;;;14.05;4.95;;;9.50;71.50;;;;;;5121418;28;20432;-60
2021/12/10 10:14:32;;;;;;;18.55;4.80;;;9.50;71.30;;;;;;5122053;28;20016;-60
2021/12/10 10:16:58;;;;;;;15.00;5.20;;;9.60;71.30;;;;;;5121618;28;20019;-60
2021/12/10 10:19:25;;;;;;;18.98;6.70;;;9.60;71.00;;;;;;5121572;28;20030;-60
2021/12/10 10:21:54;;;;;;;25.00;6.63;;;9.70;71.10;;;;;;5121724;28;20028;-60
2021/12/10 10:24:22;;;;;;;18.77;5.38;;;9.80;70.80;;;;;;5121665;28;20028;-60
2021/12/10 10:26:59;;;;;;;25.27;9.15;;;9.80;70.70;;;;;;5121422;28;20030;-60
2021/12/10 10:29:32;;;;;;;28.05;11.07;;;9.80;70.70;;;;;;5121182;28;20049;-60
2021/12/10 10:32:10;;;;;;;22.33;10.48;;;9.90;70.70;;;;;;5121598;28;20327;-60
2021/12/10 10:34:39;;;;;;;20.13;7.05;;;9.90;70.50;;;;;;5121284;28;20015;-61
2021/12/10 10:37:05;;;;;;;22.95;6.88;;;10.00;70.50;;;;;;5121194;28;20019;-60
2021/12/10 10:39:34;;;;;;;17.20;5.20;;;10.00;71.00;;;;;;5121626;28;20077;-60
2021/12/10 10:42:02;;;;;;;20.23;6.32;;;10.20;70.80;;;;;;5121320;28;20024;-60
2021/12/10 10:44:28;;;;;;;21.83;6.47;;;10.30;70.50;;;;;;5121410;28;20047;-60
2021/12/10 10:47:12;;;;;;;25.35;8.50;;;10.50;70.40;;;;;;5120438;28;20124;-61
2021/12/10 10:49:48;;;;;;;21.52;5.35;;;10.60;70.70;;;;;;5120647;28;20028;-65
2021/12/10 10:52:19;;;;;;;25.88;9.98;;;10.80;68.00;;;;;;5120590;28;20059;-66
2021/12/10 10:54:46;;;;;;;34.38;14.25;;;10.80;66.40;;;;;;5120661;28;20038;-65
2021/12/10 10:57:26;;;;;;;19.85;6.70;;;11.00;67.70;;;;;;5120284;28;20496;-65
2021/12/10 10:59:57;;;;;;;27.13;9.68;;;11.10;66.80;;;;;;5120802;28;20015;-65
2021/12/10 11:02:28;;;;;;;18.30;5.18;;;11.00;65.00;;;;;;5120399;28;20042;-65
2021/12/10 11:05:10;;;;;;;21.17;6.10;;;10.80;66.00;;;;;;5120021;28;20028;-65
2021/12/10 11:07:46;;;;;;;23.85;7.43;;;10.80;65.50;;;;;;5119683;28;20102;-65
2021/12/10 11:10:12;;;;;;;15.30;4.65;;;10.80;64.80;;;;;;5119995;28;20023;-65
2021/12/10 11:12:41;;;;;;;16.30;5.00;;;10.80;65.00;;;;;;5119818;28;20581;-66
2021/12/10 11:15:14;;;;;;;17.27;5.47;;;10.80;65.20;;;;;;5120850;28;20019;-66
2021/12/10 11:17:53;;;;;;;10.80;3.30;;;10.60;63.70;;;;;;5120081;28;20022;-64
2021/12/10 11:20:28;;;;;;;10.02;3.00;;;10.40;64.60;;;;;;5118377;28;20027;-65
2021/12/10 11:23:00;;;;;;;11.48;2.13;;;10.30;64.70;;;;;;5119692;28;20105;-64
2021/12/10 11:25:43;;;;;;;9.77;2.55;;;10.30;65.80;;;;;;5119842;28;20089;-66
2021/12/10 11:28:11;;;;;;;22.98;9.98;;;10.30;65.80;;;;;;5119659;28;20023;-66
2021/12/10 11:30:43;;;;;;;36.58;16.98;;;10.30;65.20;;;;;;5120096;28;20475;-65
2021/12/10 11:33:16;;;;;;;32.92;13.35;;;10.30;65.60;;;;;;5120097;28;20031;-65
2021/12/10 11:35:49;;;;;;;28.73;12.70;;;10.50;66.80;;;;;;5120084;28;20091;-65
2021/12/10 11:38:23;;;;;;;23.02;8.70;;;10.70;66.60;;;;;;5119969;28;20015;-66
2021/12/10 11:40:56;;;;;;;17.73;4.60;;;10.80;66.20;;;;;;5119570;28;20042;-66
2021/12/10 11:49:05;;;;;;;34.13;13.70;;;10.90;65.70;;;;;;5087920;28;20070;-65
2021/12/10 11:51:59;;;;;;;14.23;4.50;;;11.10;65.50;;;;;;5119402;28;20023;-65
2021/12/10 11:54:38;;;;;;;17.17;7.40;;;11.30;65.10;;;;;;5118897;28;20459;-65
2021/12/10 11:57:33;;;;;;;18.08;6.30;;;11.40;65.10;;;;;;5118992;28;20028;-65
2021/12/10 12:00:09;;;;;;;17.02;4.80;;;11.50;64.70;;;;;;5117036;28;20104;-65
2021/12/10 12:02:45;;;;;;;17.75;6.05;;;11.60;64.60;;;;;;5119281;28;20027;-65
2021/12/10 12:05:15;;;;;;;16.73;4.70;;;11.60;64.30;;;;;;5119281;28;20454;-65
2021/12/10 12:07:45;;;;;;;18.35;5.80;;;11.60;64.80;;;;;;5119245;28;20027;-65
2021/12/10 12:10:19;;;;;;;19.95;7.80;;;11.60;64.90;;;;;;5119341;28;20499;-66
2021/12/10 12:12:45;;;;;;;16.73;4.50;;;11.60;64.80;;;;;;5118522;28;20491;-65
2021/12/10 12:15:19;;;;;;;11.27;3.60;;;11.50;64.40;;;;;;5119084;28;20364;-65
2021/12/10 12:17:47;;;;;;;13.25;3.13;;;11.50;64.60;;;;;;5119076;28;20620;-65
2021/12/10 12:20:28;;;;;;;12.75;5.15;;;11.40;64.60;;;;;;5118684;28;20055;-65
2021/12/10 12:25:43;;;;;;;15.30;4.43;;;11.60;65.30;;;;;;5118699;28;20046;-66
2021/12/10 12:28:14;;;;;;;15.85;2.95;;;11.80;63.70;;;;;;5118736;28;20027;-66
2021/12/10 12:31:14;;;;;;;16.20;2.95;;;11.90;64.00;;;;;;5118606;28;20027;-65
2021/12/10 12:34:01;;;;;;;14.75;3.17;;;12.10;62.60;;;;;;5074138;28;20043;-65
2021/12/10 12:36:50;;;;;;;16.27;4.30;;;12.10;62.90;;;;;;5118381;28;20028;-66
2021/12/10 12:39:36;;;;;;;17.45;4.43;;;12.00;61.70;;;;;;5118632;28;20027;-65
2021/12/10 12:42:16;;;;;;;20.67;7.20;;;12.00;64.10;;;;;;5118187;28;20035;-65
2021/12/10 12:44:42;;;;;;;19.58;7.47;;;12.10;63.90;;;;;;5118693;28;20023;-65
2021/12/10 12:47:14;;;;;;;15.32;3.80;;;12.10;64.30;;;;;;5118244;28;20478;-65
2021/12/10 12:49:49;;;;;;;15.90;4.32;;;12.10;64.40;;;;;;5118110;28;20016;-66
2021/12/10 12:52:16;;;;;;;17.27;4.05;;;12.00;62.90;;;;;;5118141;28;20028;-67
2021/12/10 12:55:00;;;;;;;23.90;9.07;;;11.90;62.70;;;;;;5118568;28;20050;-65
2021/12/10 12:57:37;;;;;;;30.02;17.80;;;11.80;63.40;;;;;;5118756;28;20023;-65
2021/12/10 13:00:11;;;;;;;12.98;3.60;;;11.70;62.80;;;;;;5118687;28;20539;-65
2021/12/10 13:02:37;;;;;;;15.43;5.72;;;11.50;61.80;;;;;;5118982;28;20028;-65
2021/12/10 13:05:06;;;;;;;14.25;4.15;;;11.50;62.60;;;;;;5118418;28;20027;-65
2021/12/10 13:07:32;;;;;;;18.88;6.00;;;11.40;63.40;;;;;;5118242;28;20031;-65
2021/12/10 13:10:03;;;;;;;13.32;4.30;;;11.30;62.80;;;;;;5118424;28;20031;-65
2021/12/10 13:15:10;;;;;;;14.93;3.88;;;11.20;62.20;;;;;;5118304;28;20016;-65